Time;durP1;ratioP1;P1;durP2;ratioP2;P2;SDS_P1;SDS_P2;PMS_P1;PMS_P2;Temp;Humidity;BMP_temperature;BMP_pressure;BME280_temperature;BME280_humidity;BME280_pressure;Samples;Min_cycle;Max_cycle;Signal;HPM_P1;HPM_P2
2023/08/27 00:01:49;;;;;;;7.43;6.43;;;18.40;99.90;;;;;;5078299;28;20029;-46
2023/08/27 00:04:35;;;;;;;8.02;5.47;;;18.40;99.90;;;;;;5082951;28;20043;-51
2023/08/27 00:07:21;;;;;;;5.63;4.80;;;18.30;99.90;;;;;;5086514;28;20056;-51
2023/08/27 00:10:07;;;;;;;6.38;5.15;;;18.00;99.90;;;;;;5082757;28;20435;-49
2023/08/27 00:12:53;;;;;;;7.18;4.90;;;17.80;99.90;;;;;;5083528;28;20043;-52
2023/08/27 00:15:46;;;;;;;6.78;5.30;;;17.50;99.90;;;;;;5077335;28;20058;-52
2023/08/27 00:18:32;;;;;;;6.22;5.30;;;17.40;99.90;;;;;;5090446;28;20100;-46
2023/08/27 00:21:18;;;;;;;7.72;5.05;;;17.30;99.90;;;;;;5067615;28;20024;-53
2023/08/27 00:24:05;;;;;;;5.70;5.13;;;17.40;99.90;;;;;;5087850;28;20400;-48
2023/08/27 00:26:51;;;;;;;5.43;4.60;;;17.40;99.90;;;;;;5083195;28;20504;-48
2023/08/27 00:29:37;;;;;;;8.60;5.22;;;17.50;99.90;;;;;;5094159;28;20036;-46
2023/08/27 00:36:05;;;;;;;5.47;4.63;;;17.60;99.90;;;;;;4991992;28;20030;-48
2023/08/27 00:38:51;;;;;;;6.07;4.50;;;17.70;99.90;;;;;;5086475;28;20031;-51
2023/08/27 00:41:37;;;;;;;5.13;4.63;;;17.80;99.90;;;;;;5092406;28;20048;-51
2023/08/27 00:44:23;;;;;;;5.43;4.43;;;17.80;99.90;;;;;;5091392;28;20024;-54
2023/08/27 00:47:10;;;;;;;7.55;6.57;;;17.80;99.90;;;;;;5087446;28;20044;-51
2023/08/27 00:49:57;;;;;;;6.03;5.15;;;17.80;99.90;;;;;;5079350;28;20439;-53
2023/08/27 00:52:43;;;;;;;8.40;5.55;;;17.80;99.90;;;;;;5085402;28;20043;-56
2023/08/27 00:55:29;;;;;;;5.57;4.75;;;17.70;99.90;;;;;;5087733;28;20031;-55
2023/08/27 00:58:15;;;;;;;7.60;5.10;;;17.70;99.90;;;;;;5071064;28;20040;-48
2023/08/27 01:01:03;;;;;;;6.60;5.00;;;17.70;99.90;;;;;;5082516;28;20028;-49
2023/08/27 01:03:50;;;;;;;7.85;4.35;;;17.70;99.90;;;;;;5067889;28;20027;-48
2023/08/27 01:06:37;;;;;;;5.88;4.90;;;17.70;99.90;;;;;;5068420;28;21647;-51
2023/08/27 01:09:51;;;;;;;7.00;4.30;;;17.70;99.90;;;;;;5079497;28;20513;-50
2023/08/27 01:12:58;;;;;;;7.13;5.07;;;17.70;99.90;;;;;;5054097;28;20032;-47
2023/08/27 01:15:46;;;;;;;6.75;4.63;;;17.80;99.90;;;;;;5079903;28;20023;-49
2023/08/27 01:18:34;;;;;;;5.93;4.57;;;17.90;99.90;;;;;;5094509;28;20107;-47
2023/08/27 01:21:24;;;;;;;5.45;4.90;;;17.90;99.90;;;;;;5094528;28;20074;-47
2023/08/27 01:24:11;;;;;;;6.57;4.40;;;17.80;99.90;;;;;;5082434;28;20056;-45
2023/08/27 01:27:05;;;;;;;7.72;4.80;;;17.80;99.90;;;;;;5080150;28;20389;-48
2023/08/27 01:30:09;;;;;;;8.50;5.22;;;17.70;99.90;;;;;;5084881;28;20027;-51
2023/08/27 01:33:10;;;;;;;6.78;4.60;;;17.60;99.90;;;;;;5093893;28;20039;-50
2023/08/27 01:35:57;;;;;;;7.90;4.90;;;17.50;99.90;;;;;;5085550;28;20036;-49
2023/08/27 01:38:43;;;;;;;6.40;4.80;;;17.50;99.90;;;;;;5092263;28;20032;-47
2023/08/27 01:41:29;;;;;;;5.88;5.22;;;17.50;99.90;;;;;;5092227;28;20039;-52
2023/08/27 01:44:15;;;;;;;4.95;4.45;;;17.40;99.90;;;;;;5077317;28;20035;-46
2023/08/27 01:47:01;;;;;;;6.07;5.00;;;17.30;99.90;;;;;;5071072;28;20134;-49
2023/08/27 01:49:48;;;;;;;5.28;4.63;;;17.40;99.90;;;;;;5085350;28;20035;-46
2023/08/27 01:52:35;;;;;;;5.45;4.70;;;17.40;99.90;;;;;;5093855;28;20500;-51
2023/08/27 01:55:21;;;;;;;5.20;4.70;;;17.40;99.90;;;;;;5093772;28;20060;-50
2023/08/27 01:58:07;;;;;;;5.70;5.07;;;17.50;99.90;;;;;;5091213;28;20064;-46
2023/08/27 02:00:53;;;;;;;6.18;4.97;;;17.50;99.90;;;;;;5093363;28;20020;-46
2023/08/27 02:03:39;;;;;;;4.85;4.35;;;17.50;99.90;;;;;;5092175;28;20024;-49
2023/08/27 02:06:25;;;;;;;6.53;5.15;;;17.60;99.90;;;;;;5091783;28;20445;-48
2023/08/27 02:09:11;;;;;;;5.75;5.13;;;17.60;99.90;;;;;;5091309;28;20093;-45
2023/08/27 02:11:57;;;;;;;7.07;5.07;;;17.70;99.90;;;;;;5092526;28;20504;-46
2023/08/27 02:14:43;;;;;;;7.93;5.32;;;17.70;99.90;;;;;;5084045;28;20028;-50
2023/08/27 02:17:29;;;;;;;7.05;5.38;;;17.80;99.90;;;;;;5093245;28;20108;-50
2023/08/27 02:20:15;;;;;;;6.60;5.45;;;17.80;99.90;;;;;;5092206;28;20032;-48
2023/08/27 02:23:01;;;;;;;6.60;4.72;;;17.80;99.90;;;;;;5086830;28;20501;-47
2023/08/27 02:25:47;;;;;;;5.68;4.82;;;17.80;99.90;;;;;;5073143;28;20043;-52
2023/08/27 02:28:33;;;;;;;5.75;4.43;;;17.70;99.90;;;;;;5073343;28;20063;-51
2023/08/27 02:31:19;;;;;;;5.50;4.80;;;17.70;99.90;;;;;;5080481;28;20036;-49
2023/08/27 02:34:05;;;;;;;8.50;4.97;;;17.60;99.90;;;;;;5077761;28;20028;-52
2023/08/27 02:36:51;;;;;;;5.50;4.20;;;17.60;99.90;;;;;;5091785;28;20032;-47
2023/08/27 02:39:38;;;;;;;6.45;4.80;;;17.60;99.90;;;;;;5091786;28;20043;-47
2023/08/27 02:42:24;;;;;;;6.53;5.07;;;17.60;99.90;;;;;;5091662;28;20103;-52
2023/08/27 02:45:10;;;;;;;7.32;4.97;;;17.50;99.90;;;;;;5075361;28;20020;-46
2023/08/27 02:47:56;;;;;;;7.65;4.80;;;17.30;99.90;;;;;;5090513;28;20060;-50
2023/08/27 02:50:42;;;;;;;5.63;4.90;;;17.10;99.90;;;;;;5083651;28;20040;-52
2023/08/27 02:53:28;;;;;;;5.50;4.80;;;17.00;99.90;;;;;;5080709;28;20047;-46
2023/08/27 02:56:14;;;;;;;9.45;5.05;;;17.00;99.90;;;;;;5079619;28;20500;-51
2023/08/27 02:59:00;;;;;;;6.13;4.93;;;17.00;99.90;;;;;;5083563;28;20382;-49
2023/08/27 03:01:46;;;;;;;5.38;4.47;;;17.10;99.90;;;;;;5072551;28;20063;-53
2023/08/27 03:04:32;;;;;;;7.68;4.78;;;17.20;99.90;;;;;;5087469;28;20096;-53
2023/08/27 03:07:18;;;;;;;5.45;4.95;;;17.30;99.90;;;;;;5094240;28;20024;-48
2023/08/27 03:10:04;;;;;;;5.63;4.57;;;17.20;99.90;;;;;;5091554;28;20382;-49
2023/08/27 03:12:50;;;;;;;6.95;4.60;;;17.20;99.90;;;;;;5091206;28;20028;-50
2023/08/27 03:15:36;;;;;;;5.05;4.25;;;17.20;99.90;;;;;;5091151;28;20036;-46
2023/08/27 03:18:22;;;;;;;5.00;4.50;;;17.20;99.90;;;;;;5090716;28;20028;-46
2023/08/27 03:21:08;;;;;;;9.13;4.85;;;17.30;99.90;;;;;;5091673;28;20397;-47
2023/08/27 03:23:54;;;;;;;7.68;5.10;;;17.30;99.90;;;;;;5090455;28;20031;-45
2023/08/27 03:26:40;;;;;;;6.38;4.53;;;17.30;99.90;;;;;;5090041;28;20075;-49
2023/08/27 03:29:27;;;;;;;5.30;4.68;;;17.30;99.90;;;;;;5091468;28;20048;-53
2023/08/27 03:32:15;;;;;;;10.00;5.15;;;17.30;99.90;;;;;;5091591;28;20024;-53
2023/08/27 03:35:01;;;;;;;5.07;4.35;;;17.20;99.90;;;;;;5091250;28;20081;-54
2023/08/27 03:37:47;;;;;;;6.57;4.93;;;17.10;99.90;;;;;;5090800;28;20024;-52
2023/08/27 03:40:32;;;;;;;5.50;4.70;;;17.00;99.90;;;;;;5090609;28;20025;-49
2023/08/27 03:43:19;;;;;;;5.25;4.75;;;17.00;99.90;;;;;;5090351;28;20050;-51
2023/08/27 03:46:05;;;;;;;7.32;4.57;;;16.90;99.90;;;;;;5090416;28;20020;-44
2023/08/27 03:48:51;;;;;;;10.05;4.85;;;16.80;99.90;;;;;;5090559;28;20507;-47
2023/08/27 03:51:38;;;;;;;5.78;5.07;;;16.70;99.90;;;;;;5090732;28;20039;-47
2023/08/27 03:54:23;;;;;;;6.70;4.72;;;16.70;99.90;;;;;;5091739;28;20035;-50
2023/08/27 03:57:09;;;;;;;5.93;5.28;;;16.60;99.90;;;;;;5100236;28;20476;-54
2023/08/27 03:59:55;;;;;;;8.13;5.57;;;16.50;99.90;;;;;;5088009;28;20060;-46
2023/08/27 04:02:44;;;;;;;6.70;5.18;;;16.50;99.90;;;;;;5094163;28;20031;-51
2023/08/27 04:05:31;;;;;;;5.88;5.28;;;16.50;99.90;;;;;;5096536;28;20073;-51
2023/08/27 04:08:17;;;;;;;9.63;5.50;;;16.50;99.90;;;;;;5094149;28;20392;-52
2023/08/27 04:11:04;;;;;;;8.48;6.03;;;16.50;99.90;;;;;;5094799;28;20115;-54
2023/08/27 04:13:50;;;;;;;9.43;6.82;;;16.50;99.90;;;;;;5080468;28;20016;-52
2023/08/27 04:16:36;;;;;;;8.00;5.88;;;16.50;99.90;;;;;;5094086;28;20097;-50
2023/08/27 04:19:22;;;;;;;8.57;6.22;;;16.60;99.90;;;;;;5094874;28;20020;-52
2023/08/27 04:22:08;;;;;;;7.28;6.20;;;16.60;99.90;;;;;;5094271;28;20055;-53
2023/08/27 04:24:54;;;;;;;10.10;5.80;;;16.70;99.90;;;;;;5094805;28;20048;-51
2023/08/27 04:27:40;;;;;;;8.75;5.88;;;16.70;99.90;;;;;;5094015;28;20028;-54
2023/08/27 04:30:26;;;;;;;6.95;5.47;;;16.80;99.90;;;;;;5093480;28;20040;-57
2023/08/27 04:33:12;;;;;;;7.15;5.60;;;16.80;99.90;;;;;;5081931;28;20480;-54
2023/08/27 04:35:58;;;;;;;6.32;5.50;;;16.80;99.90;;;;;;5088837;28;20111;-53
2023/08/27 04:38:44;;;;;;;6.68;5.47;;;16.90;99.90;;;;;;5093727;28;20032;-52
2023/08/27 04:41:33;;;;;;;6.90;5.95;;;17.00;99.90;;;;;;5095553;28;20029;-55
2023/08/27 04:44:19;;;;;;;7.78;5.63;;;17.00;99.90;;;;;;5093622;28;20031;-52
2023/08/27 04:47:05;;;;;;;7.97;5.97;;;17.00;99.90;;;;;;5093382;28;20024;-49
2023/08/27 04:49:51;;;;;;;6.35;5.72;;;17.00;99.90;;;;;;5096138;28;20144;-51
2023/08/27 04:52:37;;;;;;;8.93;5.65;;;16.90;99.90;;;;;;5093111;28;20404;-46
2023/08/27 04:55:23;;;;;;;6.13;5.50;;;16.90;99.90;;;;;;5093938;28;20027;-48
2023/08/27 04:58:09;;;;;;;9.30;5.78;;;16.80;99.90;;;;;;5094261;28;20395;-52
2023/08/27 05:00:55;;;;;;;9.25;5.60;;;16.70;99.90;;;;;;5092914;28;20030;-47
2023/08/27 05:03:41;;;;;;;7.55;6.25;;;16.80;99.90;;;;;;5079727;28;20024;-45
2023/08/27 05:06:27;;;;;;;7.85;6.38;;;16.80;99.90;;;;;;5099034;28;20020;-46
2023/08/27 05:09:13;;;;;;;8.45;6.88;;;16.70;99.90;;;;;;5093539;28;20056;-47
2023/08/27 05:11:59;;;;;;;11.75;5.97;;;16.70;99.90;;;;;;5093755;28;20039;-45
2023/08/27 05:14:45;;;;;;;8.70;5.78;;;16.60;99.90;;;;;;5093549;28;20450;-50
2023/08/27 05:17:31;;;;;;;7.80;5.68;;;16.60;99.90;;;;;;5101222;28;20060;-46
2023/08/27 05:20:17;;;;;;;9.18;5.95;;;16.60;99.90;;;;;;5099033;28;20053;-53
2023/08/27 05:23:03;;;;;;;8.35;6.05;;;16.60;99.90;;;;;;5093478;28;20049;-50
2023/08/27 05:25:49;;;;;;;8.20;5.90;;;16.70;99.90;;;;;;5093613;28;20028;-51
2023/08/27 05:28:35;;;;;;;10.18;5.13;;;16.70;99.90;;;;;;5093479;28;20038;-50
2023/08/27 05:31:22;;;;;;;6.07;4.90;;;16.80;99.90;;;;;;5092823;28;20597;-51
2023/08/27 05:34:07;;;;;;;8.95;5.38;;;17.00;99.90;;;;;;5093049;28;20020;-46
2023/08/27 05:36:54;;;;;;;8.45;5.10;;;17.20;99.90;;;;;;5093147;28;20039;-45
2023/08/27 05:39:39;;;;;;;9.00;5.15;;;17.30;99.90;;;;;;5092772;28;20099;-48
2023/08/27 05:42:25;;;;;;;7.32;5.20;;;17.40;99.90;;;;;;5092669;28;20561;-51
2023/08/27 05:45:11;;;;;;;6.43;4.60;;;17.50;99.90;;;;;;5093082;28;20028;-52
2023/08/27 05:47:57;;;;;;;7.00;4.82;;;17.50;99.90;;;;;;5076578;28;20073;-54
2023/08/27 05:50:44;;;;;;;6.13;4.93;;;17.60;99.90;;;;;;5092861;28;20028;-56
2023/08/27 05:53:30;;;;;;;5.97;5.38;;;17.60;99.90;;;;;;5093778;28;20051;-55
2023/08/27 05:56:16;;;;;;;7.10;5.75;;;17.60;99.90;;;;;;5092365;28;20038;-55
2023/08/27 05:59:02;;;;;;;7.85;5.70;;;17.60;99.90;;;;;;5092212;28;20032;-51
2023/08/27 06:01:48;;;;;;;6.95;5.10;;;17.60;99.90;;;;;;5092467;28;20016;-54
2023/08/27 06:04:34;;;;;;;8.70;5.68;;;17.50;99.90;;;;;;5093162;28;20512;-52
2023/08/27 06:07:20;;;;;;;6.22;5.10;;;17.50;99.90;;;;;;5092591;28;20545;-55
2023/08/27 06:10:06;;;;;;;6.38;5.45;;;17.40;99.90;;;;;;5091472;28;20564;-52
2023/08/27 06:12:52;;;;;;;7.85;5.00;;;17.50;99.90;;;;;;5071414;28;20060;-53
2023/08/27 06:15:38;;;;;;;6.95;5.68;;;17.50;99.90;;;;;;5071634;28;20112;-50
2023/08/27 06:18:24;;;;;;;10.73;5.78;;;17.30;99.90;;;;;;5072412;28;20067;-50
2023/08/27 06:21:10;;;;;;;9.70;6.40;;;17.10;99.90;;;;;;5072895;28;20021;-51
2023/08/27 06:23:56;;;;;;;6.53;5.25;;;17.10;99.90;;;;;;5072149;28;20029;-55
2023/08/27 06:26:42;;;;;;;7.57;6.15;;;17.20;99.90;;;;;;5082090;28;20051;-56
2023/08/27 06:29:27;;;;;;;11.23;6.10;;;17.30;99.90;;;;;;5091953;28;20090;-52
2023/08/27 06:32:15;;;;;;;6.82;5.63;;;17.40;99.90;;;;;;5091868;28;20056;-54
2023/08/27 06:35:02;;;;;;;7.85;5.20;;;17.40;99.90;;;;;;5091508;28;20023;-55
2023/08/27 06:37:49;;;;;;;6.35;5.20;;;17.40;99.90;;;;;;5091836;28;20024;-50
2023/08/27 06:40:35;;;;;;;5.07;4.57;;;17.60;99.90;;;;;;5091984;28;20026;-51
2023/08/27 06:43:21;;;;;;;6.88;4.90;;;17.70;99.90;;;;;;5091513;28;20024;-52
2023/08/27 06:46:08;;;;;;;7.13;5.00;;;17.90;99.90;;;;;;5092262;28;20401;-51
2023/08/27 06:48:55;;;;;;;6.10;5.38;;;18.00;99.90;;;;;;5092000;28;20067;-48
2023/08/27 06:51:41;;;;;;;5.97;4.95;;;18.10;99.90;;;;;;5093825;28;20032;-50
2023/08/27 06:54:27;;;;;;;5.72;4.85;;;18.30;99.90;;;;;;5075951;28;20022;-54
2023/08/27 06:57:13;;;;;;;6.00;4.63;;;18.30;99.90;;;;;;5077861;28;20028;-53
2023/08/27 06:59:59;;;;;;;5.25;4.50;;;18.40;99.90;;;;;;5086462;28;20440;-53
2023/08/27 07:02:45;;;;;;;25.23;19.27;;;18.50;99.90;;;;;;5093502;28;20798;-46
2023/08/27 07:05:31;;;;;;;16.05;11.02;;;18.50;99.90;;;;;;5091746;28;20029;-46
2023/08/27 07:08:19;;;;;;;21.92;15.75;;;18.60;99.90;;;;;;5091198;28;20025;-48
2023/08/27 07:11:05;;;;;;;10.13;7.97;;;18.60;99.90;;;;;;5092935;28;20521;-49
2023/08/27 07:13:51;;;;;;;7.43;5.50;;;18.50;99.90;;;;;;5092138;28;20056;-47
2023/08/27 07:16:37;;;;;;;6.45;5.30;;;18.50;99.90;;;;;;5090951;28;20024;-47
2023/08/27 07:19:23;;;;;;;6.30;5.32;;;18.40;99.90;;;;;;5091750;28;20105;-47
2023/08/27 07:22:09;;;;;;;9.02;5.25;;;18.40;99.90;;;;;;5090963;28;20028;-50
2023/08/27 07:24:55;;;;;;;8.35;5.40;;;18.30;99.90;;;;;;5091158;28;20021;-48
2023/08/27 07:27:41;;;;;;;6.60;5.85;;;18.40;99.90;;;;;;5090102;28;20032;-54
2023/08/27 07:30:27;;;;;;;6.05;5.20;;;18.40;99.90;;;;;;5089454;28;20043;-52
2023/08/27 07:33:13;;;;;;;7.30;5.70;;;18.30;99.90;;;;;;5090988;28;20103;-54
2023/08/27 07:35:59;;;;;;;7.50;5.05;;;18.50;99.90;;;;;;5075406;28;20488;-54
2023/08/27 07:38:45;;;;;;;7.85;5.68;;;18.40;99.90;;;;;;5091166;28;20032;-56
2023/08/27 07:41:31;;;;;;;9.65;5.47;;;18.40;99.90;;;;;;5090026;28;20419;-52
2023/08/27 07:44:17;;;;;;;7.47;5.88;;;18.30;99.90;;;;;;5090387;28;20020;-55
2023/08/27 07:47:03;;;;;;;8.30;5.70;;;18.30;99.90;;;;;;5090510;28;20028;-52
2023/08/27 07:49:49;;;;;;;9.13;6.20;;;18.20;99.90;;;;;;5090659;28;20028;-53
2023/08/27 07:52:35;;;;;;;8.43;5.88;;;18.20;99.90;;;;;;5090264;28;20032;-54
2023/08/27 07:55:21;;;;;;;7.95;5.90;;;18.30;99.90;;;;;;5091178;28;20039;-52
2023/08/27 07:58:10;;;;;;;11.25;6.32;;;18.30;99.90;;;;;;5090576;28;20043;-52
2023/08/27 08:00:58;;;;;;;9.52;5.78;;;18.30;99.90;;;;;;5091064;28;20424;-55
2023/08/27 08:03:45;;;;;;;11.57;8.52;;;18.20;99.90;;;;;;5094506;28;20540;-52
2023/08/27 08:06:30;;;;;;;6.65;5.13;;;18.20;99.90;;;;;;5082404;28;20031;-51
2023/08/27 08:09:16;;;;;;;6.80;4.97;;;18.30;99.90;;;;;;5082037;28;20028;-46
2023/08/27 08:12:03;;;;;;;5.82;5.22;;;18.50;99.90;;;;;;5080753;28;20492;-48
2023/08/27 08:14:49;;;;;;;7.25;5.10;;;18.60;99.90;;;;;;5079688;28;20022;-50
2023/08/27 08:17:35;;;;;;;6.43;4.53;;;18.70;99.90;;;;;;5082721;28;20081;-47
2023/08/27 08:20:21;;;;;;;7.05;5.07;;;18.80;99.90;;;;;;5079458;28;20020;-50
2023/08/27 08:23:07;;;;;;;7.00;4.95;;;18.80;99.90;;;;;;5083826;28;20028;-46
2023/08/27 08:25:53;;;;;;;8.80;5.03;;;18.80;99.90;;;;;;5082683;28;20499;-54
2023/08/27 08:28:38;;;;;;;5.15;4.30;;;18.90;99.90;;;;;;5082001;28;20021;-50
2023/08/27 08:31:24;;;;;;;7.85;5.15;;;19.00;99.90;;;;;;5079812;28;20059;-48
2023/08/27 08:34:10;;;;;;;6.93;5.50;;;19.10;99.90;;;;;;5084484;28;20055;-49
2023/08/27 08:36:56;;;;;;;6.15;4.60;;;19.30;99.90;;;;;;5069575;28;20123;-52
2023/08/27 08:39:42;;;;;;;8.77;5.50;;;19.40;99.90;;;;;;5090603;28;20488;-55
2023/08/27 08:42:55;;;;;;;7.10;5.28;;;19.60;99.90;;;;;;5092319;28;20031;-54
2023/08/27 08:45:55;;;;;;;8.60;5.50;;;19.60;99.90;;;;;;5093747;28;20020;-50
2023/08/27 08:48:42;;;;;;;9.43;5.88;;;19.60;99.90;;;;;;5091705;28;20507;-52
2023/08/27 08:51:28;;;;;;;7.60;5.93;;;19.70;99.90;;;;;;5092616;28;20112;-50
2023/08/27 08:54:18;;;;;;;10.35;6.00;;;19.80;99.90;;;;;;5093765;28;20020;-46
2023/08/27 08:57:09;;;;;;;6.25;4.95;;;19.90;99.90;;;;;;5092847;28;20040;-52
2023/08/27 08:59:55;;;;;;;7.20;5.55;;;20.00;99.90;;;;;;5074837;28;20029;-52
2023/08/27 09:02:42;;;;;;;6.88;5.43;;;20.00;99.90;;;;;;5074500;28;20494;-50
2023/08/27 09:05:30;;;;;;;6.15;5.05;;;19.90;99.90;;;;;;5065589;28;20111;-52
2023/08/27 09:08:18;;;;;;;6.57;4.88;;;20.00;99.90;;;;;;5090342;28;20110;-47
2023/08/27 09:11:04;;;;;;;7.00;4.60;;;20.10;99.90;;;;;;5073142;28;20052;-46
2023/08/27 09:13:51;;;;;;;7.05;5.03;;;20.10;99.90;;;;;;5094433;28;20024;-45
2023/08/27 09:16:36;;;;;;;8.40;5.30;;;20.10;99.90;;;;;;5093337;28;20031;-49
2023/08/27 09:19:22;;;;;;;7.00;4.75;;;19.90;99.90;;;;;;5094011;28;20029;-46
2023/08/27 09:22:09;;;;;;;7.88;5.60;;;19.80;99.90;;;;;;5085796;28;20066;-44
2023/08/27 09:24:55;;;;;;;7.25;5.30;;;19.90;99.90;;;;;;5083588;28;20055;-47
2023/08/27 09:27:41;;;;;;;6.35;5.28;;;19.90;99.90;;;;;;5083183;28;20511;-49
2023/08/27 09:30:27;;;;;;;10.35;5.22;;;19.90;99.90;;;;;;5086605;28;20137;-47
2023/08/27 09:33:13;;;;;;;6.55;4.60;;;20.00;99.90;;;;;;5084034;28;20523;-46
2023/08/27 09:35:59;;;;;;;8.30;5.05;;;20.00;99.90;;;;;;5084346;28;20093;-49
2023/08/27 09:38:46;;;;;;;7.05;5.18;;;19.70;99.90;;;;;;5070135;28;20519;-47
2023/08/27 09:41:42;;;;;;;5.25;4.70;;;19.50;99.90;;;;;;5083203;28;20034;-50
2023/08/27 09:44:28;;;;;;;6.90;4.80;;;19.50;99.90;;;;;;5084212;28;20090;-48
2023/08/27 09:47:14;;;;;;;7.43;4.70;;;19.40;99.90;;;;;;5082613;28;20025;-49
2023/08/27 09:50:04;;;;;;;14.63;10.98;;;19.40;99.90;;;;;;5070107;28;20493;-48
2023/08/27 09:52:50;;;;;;;8.10;5.22;;;19.10;99.90;;;;;;5067512;28;20457;-49
2023/08/27 09:55:37;;;;;;;5.95;4.43;;;19.20;99.90;;;;;;5082563;28;20408;-44
2023/08/27 09:58:26;;;;;;;4.72;4.05;;;19.20;99.90;;;;;;5066221;28;20017;-45
2023/08/27 10:01:12;;;;;;;7.53;4.38;;;19.40;99.90;;;;;;5083663;28;20036;-45
2023/08/27 10:04:03;;;;;;;4.55;3.88;;;19.60;99.90;;;;;;5066433;28;20397;-50
2023/08/27 10:06:49;;;;;;;6.82;4.18;;;19.70;99.90;;;;;;5073632;28;20017;-54
2023/08/27 10:09:35;;;;;;;5.85;4.28;;;19.80;99.90;;;;;;5088467;28;20066;-54
2023/08/27 10:12:21;;;;;;;8.27;4.22;;;19.50;99.90;;;;;;5090988;28;20020;-50
2023/08/27 10:15:08;;;;;;;5.28;4.38;;;19.60;99.90;;;;;;5083572;28;20021;-49
2023/08/27 10:17:56;;;;;;;6.20;4.78;;;19.80;99.90;;;;;;5086364;28;20028;-53
2023/08/27 10:20:42;;;;;;;7.25;5.72;;;19.90;99.90;;;;;;5089935;28;20035;-51
2023/08/27 10:23:30;;;;;;;19.20;9.73;;;20.10;99.90;;;;;;5087833;28;20043;-52
2023/08/27 10:26:16;;;;;;;6.32;5.00;;;20.10;99.90;;;;;;5085150;28;20031;-51
2023/08/27 10:29:03;;;;;;;12.93;7.32;;;20.20;99.90;;;;;;5090907;28;20032;-53
2023/08/27 10:31:49;;;;;;;8.23;5.32;;;20.20;99.90;;;;;;5085616;28;20032;-51
2023/08/27 10:34:35;;;;;;;8.43;5.30;;;20.10;99.90;;;;;;5090657;28;20062;-47
2023/08/27 10:37:22;;;;;;;10.07;5.85;;;20.10;99.90;;;;;;5091385;28;20642;-47
2023/08/27 10:40:10;;;;;;;6.97;4.55;;;20.30;99.90;;;;;;5095286;28;20107;-45
2023/08/27 10:43:09;;;;;;;5.93;4.30;;;20.40;99.90;;;;;;5085798;28;20026;-54
2023/08/27 10:46:14;;;;;;;6.07;4.38;;;20.50;99.90;;;;;;5076826;28;20016;-47
2023/08/27 10:49:00;;;;;;;7.20;4.32;;;20.30;99.90;;;;;;5090018;28;20043;-53
2023/08/27 10:51:48;;;;;;;7.05;3.97;;;20.30;99.90;;;;;;5090713;28;20047;-50
2023/08/27 10:54:38;;;;;;;5.22;4.22;;;20.40;99.90;;;;;;5083063;28;20036;-47
2023/08/27 10:57:24;;;;;;;5.13;4.00;;;20.50;99.90;;;;;;5068986;28;20625;-53
2023/08/27 11:00:12;;;;;;;6.28;4.05;;;20.60;99.90;;;;;;5082233;28;20016;-52
2023/08/27 11:03:13;;;;;;;9.32;4.93;;;20.70;99.90;;;;;;5080724;28;20027;-53
2023/08/27 11:06:14;;;;;;;5.03;3.90;;;20.70;99.90;;;;;;5083512;28;20027;-48
2023/08/27 11:09:00;;;;;;;5.78;4.15;;;20.80;99.90;;;;;;5081921;28;20463;-47
2023/08/27 11:11:59;;;;;;;5.53;4.18;;;20.70;99.90;;;;;;5082338;28;20527;-45
2023/08/27 11:14:45;;;;;;;5.03;4.22;;;20.60;99.90;;;;;;5079029;28;20179;-48
2023/08/27 11:17:33;;;;;;;5.75;4.18;;;20.70;99.90;;;;;;5074513;28;20500;-49
2023/08/27 11:20:25;;;;;;;7.50;4.18;;;20.70;99.90;;;;;;5090185;28;20730;-53
2023/08/27 11:23:12;;;;;;;6.72;3.92;;;20.50;99.90;;;;;;5089329;28;20107;-46
2023/08/27 11:26:01;;;;;;;6.80;4.55;;;20.30;99.90;;;;;;5084040;28;20020;-47
2023/08/27 11:28:48;;;;;;;7.40;4.30;;;20.20;99.90;;;;;;5082490;28;20042;-49
2023/08/27 11:31:34;;;;;;;7.00;4.30;;;20.20;99.90;;;;;;5085190;28;20064;-51
2023/08/27 11:34:20;;;;;;;6.75;4.38;;;20.20;99.90;;;;;;5084513;28;20028;-49
2023/08/27 11:37:06;;;;;;;5.63;4.35;;;20.20;99.90;;;;;;5084003;28;20032;-50
2023/08/27 11:39:52;;;;;;;5.60;4.43;;;20.20;99.90;;;;;;5090368;28;20492;-52
2023/08/27 11:42:50;;;;;;;7.43;5.10;;;20.20;99.90;;;;;;5081321;28;20488;-56
2023/08/27 11:45:37;;;;;;;8.60;5.95;;;20.30;99.90;;;;;;5090003;28;20024;-48
2023/08/27 11:48:23;;;;;;;7.28;5.28;;;20.20;99.90;;;;;;5085993;28;20027;-48
2023/08/27 11:51:09;;;;;;;7.75;5.28;;;20.10;99.90;;;;;;5088294;28;20047;-47
2023/08/27 11:53:55;;;;;;;8.40;5.85;;;20.00;99.90;;;;;;5081474;28;20032;-48
2023/08/27 11:56:41;;;;;;;5.40;4.25;;;20.00;99.90;;;;;;5079919;28;20032;-52
2023/08/27 11:59:28;;;;;;;5.63;3.92;;;20.10;99.90;;;;;;5089357;28;20457;-53
2023/08/27 12:02:14;;;;;;;5.85;4.40;;;20.00;99.90;;;;;;5065093;28;20040;-51
2023/08/27 12:05:00;;;;;;;6.40;4.20;;;20.00;99.90;;;;;;5086695;28;20032;-49
2023/08/27 12:07:46;;;;;;;5.03;4.13;;;20.00;99.90;;;;;;5087965;28;20103;-46
2023/08/27 12:10:32;;;;;;;6.75;4.55;;;19.90;99.90;;;;;;5080145;28;20032;-48
2023/08/27 12:13:19;;;;;;;5.20;4.10;;;19.90;99.90;;;;;;5080670;28;20519;-50
2023/08/27 12:16:06;;;;;;;6.32;4.32;;;20.00;99.90;;;;;;5070975;28;20066;-46
2023/08/27 12:18:51;;;;;;;8.13;4.47;;;20.00;99.90;;;;;;5087935;28;20107;-46
2023/08/27 12:21:52;;;;;;;4.95;4.00;;;20.00;99.90;;;;;;5085300;28;20032;-46
2023/08/27 12:24:43;;;;;;;5.43;4.50;;;20.10;99.90;;;;;;5083431;28;20389;-45
2023/08/27 12:27:30;;;;;;;5.90;5.22;;;20.20;99.90;;;;;;5067990;28;20115;-44
2023/08/27 12:30:16;;;;;;;6.38;4.38;;;20.30;99.90;;;;;;5083453;28;20031;-48
2023/08/27 12:33:02;;;;;;;5.57;4.65;;;20.40;99.90;;;;;;5086511;28;20017;-46
2023/08/27 12:35:49;;;;;;;7.00;4.80;;;20.40;99.90;;;;;;5083060;28;20371;-47
2023/08/27 12:38:35;;;;;;;8.15;4.95;;;20.30;99.90;;;;;;5087485;28;20548;-47
2023/08/27 12:41:21;;;;;;;6.47;4.82;;;20.30;99.90;;;;;;5070152;28;20400;-47
2023/08/27 12:44:07;;;;;;;6.45;4.70;;;20.40;99.90;;;;;;5084690;28;20029;-49
2023/08/27 12:46:53;;;;;;;5.47;4.72;;;20.40;99.90;;;;;;5088180;28;20031;-46
2023/08/27 12:49:40;;;;;;;6.32;4.75;;;20.40;99.90;;;;;;5088329;28;20112;-47
2023/08/27 12:52:26;;;;;;;5.70;4.55;;;20.40;99.90;;;;;;5085667;28;20044;-50
2023/08/27 12:55:12;;;;;;;7.10;4.80;;;20.30;99.90;;;;;;5086458;28;20112;-48
2023/08/27 12:57:58;;;;;;;8.15;5.18;;;20.20;99.90;;;;;;5082670;28;20073;-52
2023/08/27 13:00:44;;;;;;;6.88;5.45;;;20.20;99.90;;;;;;5083453;28;20137;-48
2023/08/27 13:03:30;;;;;;;8.27;7.43;;;20.30;99.90;;;;;;5092859;28;20020;-52
2023/08/27 13:06:17;;;;;;;6.95;6.20;;;20.40;99.90;;;;;;5085360;28;20027;-52
2023/08/27 13:09:04;;;;;;;7.65;6.50;;;20.50;99.90;;;;;;5086235;28;20048;-44
2023/08/27 13:11:50;;;;;;;6.72;5.18;;;20.50;99.90;;;;;;5094822;28;20059;-49
2023/08/27 13:14:36;;;;;;;7.00;6.03;;;20.60;99.90;;;;;;5109321;28;20041;-46
2023/08/27 13:17:22;;;;;;;9.25;5.90;;;20.70;99.90;;;;;;5093448;28;20413;-44
2023/08/27 13:20:09;;;;;;;10.38;6.70;;;20.70;99.90;;;;;;5092700;28;20385;-47
2023/08/27 13:22:54;;;;;;;5.88;5.28;;;20.80;99.90;;;;;;5073190;28;20029;-50
2023/08/27 13:25:41;;;;;;;6.80;4.60;;;20.90;99.90;;;;;;5075154;28;20658;-45
2023/08/27 13:28:27;;;;;;;7.25;4.70;;;20.90;99.90;;;;;;5062464;28;20035;-50
2023/08/27 13:31:13;;;;;;;6.13;4.88;;;20.80;99.90;;;;;;5089010;28;20085;-47
2023/08/27 13:34:00;;;;;;;7.50;5.35;;;20.80;99.90;;;;;;5058905;28;20086;-46
2023/08/27 13:36:46;;;;;;;10.98;5.05;;;20.80;99.90;;;;;;5074528;28;20109;-45
2023/08/27 13:39:32;;;;;;;9.00;4.63;;;20.70;99.90;;;;;;5073598;28;20036;-46
2023/08/27 13:42:18;;;;;;;5.75;5.13;;;20.80;99.90;;;;;;5073798;28;20127;-44
2023/08/27 13:45:04;;;;;;;6.53;4.88;;;20.90;99.90;;;;;;5079318;28;20020;-44
2023/08/27 13:47:50;;;;;;;5.72;4.45;;;20.90;99.90;;;;;;5092531;28;20028;-45
2023/08/27 13:50:36;;;;;;;5.80;4.68;;;21.00;99.90;;;;;;5078976;28;20530;-49
2023/08/27 13:53:22;;;;;;;6.43;4.47;;;21.00;99.90;;;;;;5094099;28;20081;-44
2023/08/27 13:56:08;;;;;;;6.00;5.18;;;20.90;99.90;;;;;;5094157;28;20050;-49
2023/08/27 13:58:54;;;;;;;6.90;4.53;;;20.80;99.90;;;;;;5092770;28;20043;-45
2023/08/27 14:01:40;;;;;;;8.32;4.47;;;20.80;99.90;;;;;;5091993;28;20024;-44
2023/08/27 14:04:26;;;;;;;8.20;4.18;;;20.70;99.90;;;;;;5074034;28;20067;-46
2023/08/27 14:07:12;;;;;;;4.72;3.88;;;20.80;99.90;;;;;;5086294;28;20066;-47
2023/08/27 14:09:58;;;;;;;5.03;4.05;;;20.70;99.90;;;;;;5093300;28;20036;-47
2023/08/27 14:12:46;;;;;;;5.18;4.32;;;20.70;99.90;;;;;;5093470;28;20047;-50
2023/08/27 14:15:32;;;;;;;5.15;4.13;;;20.70;99.90;;;;;;5060536;28;20133;-50
2023/08/27 14:18:18;;;;;;;5.10;4.43;;;20.70;99.90;;;;;;5081628;28;20026;-47
2023/08/27 14:21:04;;;;;;;9.95;7.57;;;20.70;99.90;;;;;;5087471;28;20070;-46
2023/08/27 14:23:51;;;;;;;5.57;4.50;;;20.70;99.90;;;;;;5093377;28;20056;-55
2023/08/27 14:26:37;;;;;;;7.13;4.93;;;20.70;99.90;;;;;;5093023;28;20082;-57
2023/08/27 14:29:23;;;;;;;7.53;4.63;;;20.80;99.90;;;;;;5091805;28;20036;-50
2023/08/27 14:32:09;;;;;;;7.03;4.22;;;20.90;99.90;;;;;;5092998;28;20028;-54